< < Back
Terminal Aerodrome Forecast


Current Version              Previous Versions:   1  2  3  4  5  6  7  8  9  

Terminal Aerodrome Forecast

558
FTUS44 KHUN 252322
TAFHSV
TAF
KHSV 252322Z 2600/2624 VRB04KT P6SM VCTS SCT050CB BKN090
     FM260200 VRB05KT P6SM SCT090 SCT250
      TEMPO 2609/2611 5SM BR
     FM261500 21010G16KT P6SM SCT040=



Latest METAR

717
SAUS80 KWBC 260100 RRD
MTRHSV
METAR KHSV 260153Z 28003KT 10SM FEW065 SCT120 OVC180 24/19 A3008 RMK AO2
RAE0054 SLP176 FRQ LTGICCG DSNT N CB DSNT N P0000
T02440189


USA.gov is the U.S. government's official web portal to all federal, state and local government web resources and services.